createdAt,value
2022-10-01T00:00:05.672Z,0.00
2022-10-01T00:01:05.597Z,0.00
2022-10-01T00:02:06.340Z,0.00
2022-10-01T00:03:05.748Z,0.00
2022-10-01T00:04:05.507Z,0.00
2022-10-01T00:05:05.594Z,0.00
2022-10-01T00:06:05.526Z,0.00
2022-10-01T00:07:05.502Z,0.00
2022-10-01T00:08:06.060Z,0.00
2022-10-01T00:09:05.504Z,0.00
2022-10-01T00:10:05.472Z,0.00
2022-10-01T00:11:05.519Z,0.00
2022-10-01T00:12:05.647Z,0.00
2022-10-01T00:13:05.438Z,0.00
2022-10-01T00:14:05.567Z,0.00
2022-10-01T00:15:06.276Z,0.00
2022-10-01T00:16:05.410Z,0.00
2022-10-01T00:17:05.647Z,0.00
2022-10-01T00:18:05.385Z,0.00
2022-10-01T00:19:05.460Z,0.00
2022-10-01T00:20:14.039Z,0.00
2022-10-01T00:21:05.365Z,0.00
2022-10-01T00:22:05.809Z,0.00
2022-10-01T00:23:05.353Z,0.00
2022-10-01T00:24:05.913Z,0.00
2022-10-01T00:25:05.385Z,0.00
2022-10-01T00:26:05.315Z,0.00
2022-10-01T00:27:05.327Z,0.00
2022-10-01T00:28:05.384Z,0.00
2022-10-01T00:29:05.525Z,0.00
2022-10-01T00:30:05.228Z,0.00
2022-10-01T00:31:05.547Z,0.00
2022-10-01T00:32:06.845Z,0.00
2022-10-01T00:33:05.194Z,0.00
2022-10-01T00:34:06.377Z,0.00
2022-10-01T00:35:06.572Z,0.00
2022-10-01T00:36:05.709Z,0.00
2022-10-01T00:37:05.909Z,0.00
2022-10-01T00:38:05.383Z,0.00
2022-10-01T00:39:05.306Z,0.00
2022-10-01T00:40:05.730Z,0.00
2022-10-01T00:41:05.405Z,0.00
2022-10-01T00:42:05.246Z,0.00
2022-10-01T00:43:05.846Z,0.00
2022-10-01T00:44:05.348Z,0.00
2022-10-01T00:45:05.616Z,0.00
2022-10-01T00:46:05.453Z,0.00
2022-10-01T00:47:05.785Z,0.00
2022-10-01T00:48:05.227Z,0.00
2022-10-01T00:49:05.364Z,0.00
2022-10-01T00:50:06.998Z,0.00
2022-10-01T00:51:05.142Z,0.00
2022-10-01T00:52:05.472Z,0.00
2022-10-01T00:53:05.103Z,0.00
2022-10-01T00:54:05.190Z,0.00
2022-10-01T00:55:06.171Z,0.00
2022-10-01T00:56:05.402Z,0.00
2022-10-01T00:57:05.729Z,0.00
2022-10-01T00:58:05.439Z,0.00
2022-10-01T00:59:04.995Z,0.00
2022-10-01T01:00:05.051Z,0.00
2022-10-01T01:02:28.136Z,0.00
2022-10-01T01:03:29.099Z,0.00
2022-10-01T01:04:29.141Z,0.00
2022-10-01T01:05:29.045Z,0.00
2022-10-01T01:06:29.059Z,0.00
2022-10-01T01:07:29.051Z,0.00
2022-10-01T01:08:29.030Z,0.00
2022-10-01T01:09:29.018Z,0.00
2022-10-01T01:10:29.042Z,0.00
2022-10-01T01:11:28.978Z,0.00
2022-10-01T01:12:28.984Z,0.00
2022-10-01T01:13:28.973Z,0.00
2022-10-01T01:14:28.958Z,0.00
2022-10-01T01:15:28.964Z,0.00
2022-10-01T01:16:28.993Z,0.00
2022-10-01T01:17:28.931Z,0.00
2022-10-01T01:18:28.928Z,0.00
2022-10-01T01:19:28.896Z,0.00
2022-10-01T01:20:28.930Z,0.00
2022-10-01T01:21:28.918Z,0.00
2022-10-01T01:22:28.883Z,0.00
2022-10-01T01:23:28.861Z,0.00
2022-10-01T01:24:28.881Z,0.00
2022-10-01T01:25:28.840Z,0.00
2022-10-01T01:26:28.839Z,0.00
2022-10-01T01:27:28.823Z,0.00
2022-10-01T01:28:28.889Z,0.00
2022-10-01T01:29:28.816Z,0.00
2022-10-01T01:30:28.806Z,0.00
2022-10-01T01:31:28.869Z,0.00
2022-10-01T01:32:28.805Z,0.00
2022-10-01T01:33:28.764Z,0.00
2022-10-01T01:34:28.743Z,0.00
2022-10-01T01:35:28.735Z,0.00
2022-10-01T01:36:28.732Z,0.00
2022-10-01T01:37:28.788Z,0.00
2022-10-01T01:38:28.719Z,0.00
2022-10-01T01:39:28.696Z,0.00
2022-10-01T01:40:28.701Z,0.00
2022-10-01T01:41:28.685Z,0.00
2022-10-01T01:42:28.682Z,0.00
2022-10-01T01:43:28.673Z,0.00
2022-10-01T01:44:28.643Z,0.00
2022-10-01T01:45:28.785Z,0.00
2022-10-01T01:46:28.629Z,0.00
2022-10-01T01:47:29.041Z,0.00
2022-10-01T01:48:28.624Z,0.00
2022-10-01T01:49:28.577Z,0.00
2022-10-01T01:50:28.588Z,0.00
2022-10-01T01:51:28.557Z,0.00
2022-10-01T01:52:28.577Z,0.00
2022-10-01T01:53:28.540Z,0.00
2022-10-01T01:54:28.561Z,0.00
2022-10-01T01:55:28.533Z,0.00
2022-10-01T01:56:28.528Z,0.00
2022-10-01T01:57:28.513Z,0.00
2022-10-01T01:58:28.501Z,0.00
2022-10-01T01:59:28.489Z,0.00
2022-10-01T02:00:28.489Z,0.00
2022-10-01T02:01:28.536Z,0.00
2022-10-01T02:02:28.633Z,0.00
2022-10-01T02:03:28.430Z,0.00
2022-10-01T02:04:28.450Z,0.00
2022-10-01T02:05:28.409Z,0.00
2022-10-01T02:06:28.418Z,0.00
2022-10-01T02:07:28.442Z,0.00
2022-10-01T02:08:28.409Z,0.00
2022-10-01T02:09:28.376Z,0.00
2022-10-01T02:10:28.382Z,0.00
2022-10-01T02:11:28.358Z,0.00
2022-10-01T02:12:28.552Z,0.00
2022-10-01T02:13:28.338Z,0.00
2022-10-01T02:14:28.320Z,0.00
2022-10-01T02:15:28.375Z,0.00
2022-10-01T02:16:28.396Z,0.00
2022-10-01T02:17:28.295Z,0.00
2022-10-01T02:18:28.277Z,0.00
2022-10-01T02:19:28.303Z,0.00
2022-10-01T02:20:28.281Z,0.00
2022-10-01T02:21:28.252Z,0.00
2022-10-01T02:22:28.257Z,0.00
2022-10-01T02:23:28.286Z,0.00
2022-10-01T02:24:28.222Z,0.00
2022-10-01T02:25:28.207Z,0.00
2022-10-01T02:26:28.228Z,0.00
2022-10-01T02:27:28.186Z,0.00
2022-10-01T02:28:28.260Z,0.00
2022-10-01T02:29:28.208Z,0.00
2022-10-01T02:30:28.170Z,0.00
2022-10-01T02:31:28.165Z,0.00
2022-10-01T02:32:28.191Z,0.00
2022-10-01T02:33:28.160Z,0.00
2022-10-01T02:34:28.111Z,0.00
2022-10-01T02:35:28.106Z,0.00
2022-10-01T02:36:28.164Z,0.00
2022-10-01T02:37:28.084Z,0.00
2022-10-01T02:38:28.072Z,0.00
2022-10-01T02:39:28.081Z,0.00
2022-10-01T02:40:28.093Z,0.00
2022-10-01T02:41:28.048Z,0.00
2022-10-01T02:42:28.082Z,0.00
2022-10-01T02:43:28.083Z,0.00
2022-10-01T02:44:27.996Z,0.00
2022-10-01T02:45:28.062Z,0.00
2022-10-01T02:46:28.137Z,0.00
2022-10-01T02:47:27.975Z,0.00
2022-10-01T02:48:28.176Z,0.00
2022-10-01T02:49:30.749Z,0.00
2022-10-01T02:50:28.023Z,0.00
2022-10-01T02:51:27.976Z,0.00
2022-10-01T02:52:27.993Z,0.00
2022-10-01T02:53:27.960Z,0.00
2022-10-01T02:54:27.912Z,0.00
2022-10-01T02:55:27.863Z,0.00
2022-10-01T02:56:27.928Z,0.00
2022-10-01T02:57:27.891Z,0.00
2022-10-01T02:58:27.868Z,0.00
2022-10-01T02:59:27.836Z,0.00
2022-10-01T03:00:27.845Z,0.00
2022-10-01T03:01:27.831Z,0.00
2022-10-01T03:02:27.897Z,0.00
2022-10-01T03:03:28.107Z,0.00
2022-10-01T03:04:27.815Z,0.00
2022-10-01T03:05:27.886Z,0.00
2022-10-01T03:06:27.806Z,0.00
2022-10-01T03:07:27.769Z,0.00
2022-10-01T03:08:27.803Z,0.00
2022-10-01T03:09:27.780Z,0.00
2022-10-01T03:10:27.767Z,0.00
2022-10-01T03:11:27.694Z,0.00
2022-10-01T03:12:27.775Z,0.00
2022-10-01T03:13:27.808Z,0.00
2022-10-01T03:14:27.664Z,0.00
2022-10-01T03:15:27.703Z,0.00
2022-10-01T03:16:27.740Z,0.00
2022-10-01T03:17:27.682Z,0.00
2022-10-01T03:18:27.667Z,0.00
2022-10-01T03:19:27.639Z,0.00
2022-10-01T03:20:27.691Z,0.00
2022-10-01T03:21:27.617Z,0.00
2022-10-01T03:22:27.584Z,0.00
2022-10-01T03:23:27.560Z,0.00
2022-10-01T03:24:27.612Z,0.00
2022-10-01T03:25:27.582Z,0.00
2022-10-01T03:26:27.547Z,0.00
2022-10-01T03:27:27.521Z,0.00
2022-10-01T03:28:27.602Z,0.00
2022-10-01T03:29:27.503Z,0.00
2022-10-01T03:30:27.528Z,0.00
2022-10-01T03:31:27.555Z,0.00
2022-10-01T03:32:27.467Z,0.00
2022-10-01T03:33:27.447Z,0.00
2022-10-01T03:34:27.508Z,0.00
2022-10-01T03:35:27.429Z,0.00
2022-10-01T03:36:27.429Z,0.00
2022-10-01T03:37:27.432Z,0.00
2022-10-01T03:38:27.448Z,0.00
2022-10-01T03:39:27.433Z,0.00
2022-10-01T03:40:27.396Z,0.00
2022-10-01T03:41:27.360Z,0.00
2022-10-01T03:42:27.379Z,0.00
2022-10-01T03:43:27.346Z,0.00
2022-10-01T03:44:27.349Z,0.00
2022-10-01T03:45:27.335Z,0.00
2022-10-01T03:46:27.330Z,0.00
2022-10-01T03:47:27.297Z,0.00
2022-10-01T03:48:27.344Z,0.00
2022-10-01T03:49:27.288Z,0.00
2022-10-01T03:50:27.317Z,0.00
2022-10-01T03:51:27.258Z,0.00
2022-10-01T03:52:27.266Z,0.00
2022-10-01T03:53:27.266Z,0.00
2022-10-01T03:54:27.224Z,0.00
2022-10-01T03:55:27.204Z,0.00
2022-10-01T03:56:27.207Z,0.00
2022-10-01T03:57:27.266Z,0.00
2022-10-01T03:58:27.185Z,0.00
2022-10-01T03:59:27.224Z,0.00
2022-10-01T04:00:27.198Z,0.00
2022-10-01T04:01:27.208Z,0.00
2022-10-01T04:02:27.336Z,0.00
2022-10-01T04:03:27.141Z,0.00
2022-10-01T04:04:27.214Z,0.00
2022-10-01T04:05:27.131Z,0.00
2022-10-01T04:06:27.157Z,0.00
2022-10-01T04:07:27.102Z,0.00
2022-10-01T04:08:27.170Z,0.00
2022-10-01T04:09:27.099Z,0.00
2022-10-01T04:10:27.202Z,0.00
2022-10-01T04:11:27.053Z,0.00
2022-10-01T04:12:27.121Z,0.00
2022-10-01T04:13:27.039Z,0.00
2022-10-01T04:14:27.091Z,0.00
2022-10-01T04:15:27.018Z,0.00
2022-10-01T04:16:27.076Z,0.00
2022-10-01T04:17:27.043Z,0.00
2022-10-01T04:18:27.270Z,0.00
2022-10-01T04:19:26.980Z,0.00
2022-10-01T04:20:26.999Z,0.00
2022-10-01T04:21:26.960Z,0.00
2022-10-01T04:22:27.004Z,0.00
2022-10-01T04:23:26.945Z,0.00
2022-10-01T04:24:27.034Z,0.00
2022-10-01T04:25:26.894Z,0.00
2022-10-01T04:26:26.891Z,0.00
2022-10-01T04:27:26.913Z,0.00
2022-10-01T04:28:26.963Z,0.00
2022-10-01T04:29:26.902Z,0.00
2022-10-01T04:30:26.884Z,0.00
2022-10-01T04:31:27.170Z,0.00
2022-10-01T04:32:26.843Z,0.00
2022-10-01T04:33:26.830Z,0.00
2022-10-01T04:34:26.833Z,0.00
2022-10-01T04:35:26.790Z,0.00
2022-10-01T04:36:26.789Z,0.00
2022-10-01T04:37:26.785Z,0.00
2022-10-01T04:38:26.753Z,0.00
2022-10-01T04:39:26.741Z,0.00
2022-10-01T04:40:26.787Z,0.00
2022-10-01T04:41:26.708Z,0.00
2022-10-01T04:42:26.745Z,0.00
2022-10-01T04:43:26.701Z,0.00
2022-10-01T04:44:26.692Z,0.00
2022-10-01T04:45:26.675Z,0.00
2022-10-01T04:46:26.749Z,0.00
2022-10-01T04:47:26.641Z,0.00
2022-10-01T04:48:26.641Z,0.00
2022-10-01T04:49:26.661Z,0.00
2022-10-01T04:50:26.636Z,0.00
2022-10-01T04:51:26.609Z,0.00
2022-10-01T04:52:26.600Z,0.00
2022-10-01T04:53:26.575Z,0.00
2022-10-01T04:54:26.566Z,0.00
2022-10-01T04:55:26.601Z,0.00
2022-10-01T04:56:26.571Z,0.00
2022-10-01T04:57:26.568Z,0.00
2022-10-01T04:58:26.526Z,0.00
2022-10-01T04:59:26.557Z,0.00
2022-10-01T05:00:26.513Z,0.00
2022-10-01T05:01:26.580Z,0.00
2022-10-01T05:02:26.568Z,0.00
2022-10-01T05:03:26.456Z,0.00
2022-10-01T05:04:26.474Z,0.00
2022-10-01T05:05:26.459Z,0.00
2022-10-01T05:06:26.455Z,0.00
2022-10-01T05:07:26.479Z,0.00
2022-10-01T05:08:26.410Z,0.00
2022-10-01T05:09:26.420Z,0.00
2022-10-01T05:10:26.400Z,0.00
2022-10-01T05:11:26.405Z,0.00
2022-10-01T05:12:26.393Z,0.00
2022-10-01T05:13:26.368Z,0.00
2022-10-01T05:14:26.349Z,0.00
2022-10-01T05:15:26.354Z,0.00
2022-10-01T05:16:26.408Z,0.00
2022-10-01T05:17:26.295Z,1.00
2022-10-01T05:18:26.269Z,1.00
2022-10-01T05:19:28.089Z,1.00
2022-10-01T05:20:26.220Z,1.00
2022-10-01T05:21:26.267Z,2.00
2022-10-01T05:22:26.233Z,2.00
2022-10-01T05:23:26.224Z,1.00
2022-10-01T05:24:26.237Z,1.00
2022-10-01T05:25:26.366Z,3.00
2022-10-01T05:26:26.234Z,2.00
2022-10-01T05:27:26.214Z,3.00
2022-10-01T05:28:26.218Z,5.00
2022-10-01T05:29:26.216Z,7.00
2022-10-01T05:30:26.142Z,6.00
2022-10-01T05:31:26.239Z,4.00
2022-10-01T05:32:26.133Z,4.00
2022-10-01T05:33:26.120Z,7.00
2022-10-01T05:34:26.090Z,6.00
2022-10-01T05:35:26.093Z,9.00
2022-10-01T05:36:26.039Z,11.00
2022-10-01T05:37:26.100Z,15.00
2022-10-01T05:38:26.054Z,18.00
2022-10-01T05:39:26.053Z,19.00
2022-10-01T05:40:26.027Z,16.00
2022-10-01T05:41:26.029Z,13.00
2022-10-01T05:42:25.993Z,11.00
2022-10-01T05:43:26.013Z,11.00
2022-10-01T05:44:25.964Z,19.00
2022-10-01T05:45:26.035Z,15.00
2022-10-01T05:46:25.974Z,17.00
2022-10-01T05:47:25.942Z,22.00
2022-10-01T05:48:25.932Z,18.00
2022-10-01T05:49:25.962Z,23.00
2022-10-01T05:50:25.907Z,20.00
2022-10-01T05:51:25.898Z,25.00
2022-10-01T05:52:25.876Z,21.00
2022-10-01T05:53:25.888Z,28.00
2022-10-01T05:54:25.871Z,28.00
2022-10-01T05:55:25.883Z,30.00
2022-10-01T05:56:25.838Z,21.00
2022-10-01T05:57:25.849Z,42.00
2022-10-01T05:58:25.822Z,30.00
2022-10-01T05:59:31.014Z,33.00
2022-10-01T06:00:25.815Z,41.00
2022-10-01T06:01:25.791Z,43.00
2022-10-01T06:02:25.897Z,35.00
2022-10-01T06:03:25.769Z,32.00
2022-10-01T06:04:25.791Z,40.00
2022-10-01T06:05:25.772Z,53.00
2022-10-01T06:06:25.726Z,46.00
2022-10-01T06:07:25.721Z,57.00
2022-10-01T06:08:25.728Z,53.00
2022-10-01T06:09:25.851Z,54.00
2022-10-01T06:10:25.706Z,56.00
2022-10-01T06:11:25.691Z,46.00
2022-10-01T06:12:25.688Z,59.00
2022-10-01T06:13:25.681Z,63.00
2022-10-01T06:14:25.683Z,43.00
2022-10-01T06:15:25.682Z,74.00
2022-10-01T06:16:25.659Z,70.00
2022-10-01T06:17:25.653Z,60.00
2022-10-01T06:18:25.615Z,59.00
2022-10-01T06:19:25.651Z,73.00
2022-10-01T06:20:25.617Z,71.00
2022-10-01T06:21:25.599Z,76.00
2022-10-01T06:22:25.571Z,73.00
2022-10-01T06:23:25.575Z,86.00
2022-10-01T06:24:25.554Z,83.00
2022-10-01T06:25:25.527Z,73.00
2022-10-01T06:26:25.554Z,70.00
2022-10-01T06:27:25.510Z,75.00
2022-10-01T06:28:25.661Z,112.00
2022-10-01T06:29:25.490Z,102.00
2022-10-01T06:30:25.462Z,89.00
2022-10-01T06:31:25.543Z,69.00
2022-10-01T06:32:25.464Z,93.00
2022-10-01T06:33:25.438Z,65.00
2022-10-01T06:34:25.427Z,85.00
2022-10-01T06:35:25.442Z,106.00
2022-10-01T06:36:25.401Z,122.00
2022-10-01T06:37:25.406Z,98.00
2022-10-01T06:38:25.387Z,150.00
2022-10-01T06:39:25.419Z,112.00
2022-10-01T06:40:25.353Z,170.00
2022-10-01T06:41:25.358Z,138.00
2022-10-01T06:42:25.359Z,140.00
2022-10-01T06:43:25.343Z,152.00
2022-10-01T06:44:25.325Z,120.00
2022-10-01T06:45:25.321Z,108.00
2022-10-01T06:46:25.291Z,83.00
2022-10-01T06:47:25.292Z,109.00
2022-10-01T06:48:25.274Z,149.00
2022-10-01T06:49:25.298Z,104.00
2022-10-01T06:50:25.255Z,138.00
2022-10-01T06:51:25.251Z,286.00
2022-10-01T06:52:25.220Z,314.00
2022-10-01T06:53:25.258Z,325.00
2022-10-01T06:54:25.200Z,315.00
2022-10-01T06:55:25.260Z,248.00
2022-10-01T06:56:25.173Z,133.00
2022-10-01T06:57:25.186Z,221.00
2022-10-01T06:58:25.168Z,232.00
2022-10-01T06:59:25.169Z,223.00
2022-10-01T07:00:25.151Z,133.00
2022-10-01T07:01:25.226Z,128.00
2022-10-01T07:02:25.211Z,165.00
2022-10-01T07:03:25.135Z,264.00
2022-10-01T07:04:25.138Z,273.00
2022-10-01T07:05:25.103Z,294.00
2022-10-01T07:06:25.113Z,241.00
2022-10-01T07:07:28.206Z,237.00
2022-10-01T07:08:25.062Z,220.00
2022-10-01T07:09:25.058Z,510.00
2022-10-01T07:10:25.071Z,429.00
2022-10-01T07:11:25.040Z,287.00
2022-10-01T07:12:25.022Z,202.00
2022-10-01T07:13:25.002Z,204.00
2022-10-01T07:14:25.033Z,247.00
2022-10-01T07:15:25.000Z,188.00
2022-10-01T07:16:25.021Z,129.00
2022-10-01T07:17:24.967Z,105.00
2022-10-01T07:18:24.949Z,122.00
2022-10-01T07:19:24.948Z,168.00
2022-10-01T07:20:24.923Z,165.00
2022-10-01T07:21:24.942Z,161.00
2022-10-01T07:22:24.916Z,134.00
2022-10-01T07:23:24.895Z,119.00
2022-10-01T07:24:24.868Z,102.00
2022-10-01T07:25:24.881Z,164.00
2022-10-01T07:26:24.871Z,150.00
2022-10-01T07:27:24.858Z,107.00
2022-10-01T07:28:24.920Z,100.00
2022-10-01T07:29:24.850Z,488.00
2022-10-01T07:30:24.869Z,443.00
2022-10-01T07:31:24.867Z,313.00
2022-10-01T07:32:24.803Z,449.00
2022-10-01T07:33:24.805Z,471.00
2022-10-01T07:34:24.771Z,283.00
2022-10-01T07:35:24.781Z,249.00
2022-10-01T07:36:24.747Z,358.00
2022-10-01T07:37:24.747Z,301.00
2022-10-01T07:38:24.718Z,255.00
2022-10-01T07:39:24.727Z,265.00
2022-10-01T07:40:24.724Z,689.00
2022-10-01T07:41:24.819Z,359.00
2022-10-01T07:42:24.719Z,409.00
2022-10-01T07:43:24.700Z,536.00
2022-10-01T07:44:24.661Z,733.00
2022-10-01T07:45:24.711Z,845.00
2022-10-01T07:46:24.641Z,451.00
2022-10-01T07:47:24.641Z,789.00
2022-10-01T07:48:24.623Z,773.00
2022-10-01T07:49:24.623Z,454.00
2022-10-01T07:50:24.614Z,885.00
2022-10-01T07:51:24.581Z,1237.00
2022-10-01T07:52:24.586Z,1259.00
2022-10-01T07:53:24.577Z,1706.00
2022-10-01T07:54:24.616Z,1277.00
2022-10-01T07:55:24.568Z,1652.00
2022-10-01T07:56:24.527Z,960.00
2022-10-01T07:57:24.534Z,847.00
2022-10-01T07:58:24.512Z,1666.00
2022-10-01T07:59:24.512Z,1203.00
2022-10-01T08:00:24.585Z,1341.00
2022-10-01T08:01:24.606Z,1387.00
2022-10-01T08:02:24.524Z,1440.00
2022-10-01T08:03:24.486Z,2823.00
2022-10-01T08:04:24.449Z,2469.00
2022-10-01T08:05:24.430Z,1408.00
2022-10-01T08:06:25.728Z,1142.00
2022-10-01T08:07:24.430Z,2986.00
2022-10-01T08:08:24.398Z,2393.00
2022-10-01T08:09:24.402Z,903.00
2022-10-01T08:10:24.390Z,317.00
2022-10-01T08:11:24.395Z,1394.00
2022-10-01T08:12:24.384Z,1851.00
2022-10-01T08:13:24.363Z,1353.00
2022-10-01T08:14:24.330Z,892.00
2022-10-01T08:15:24.339Z,422.00
2022-10-01T08:16:24.332Z,689.00
2022-10-01T08:17:29.181Z,2872.00
2022-10-01T08:18:24.298Z,2097.00
2022-10-01T08:19:24.291Z,1523.00
2022-10-01T08:20:24.281Z,1161.00
2022-10-01T08:21:24.265Z,1662.00
2022-10-01T08:22:24.278Z,965.00
2022-10-01T08:23:24.248Z,885.00
2022-10-01T08:24:24.245Z,2024.00
2022-10-01T08:25:24.217Z,1841.00
2022-10-01T08:26:24.224Z,1492.00
2022-10-01T08:27:24.219Z,1431.00
2022-10-01T08:28:24.211Z,2345.00
2022-10-01T08:29:24.216Z,1966.00
2022-10-01T08:30:24.185Z,1612.00
2022-10-01T08:31:24.242Z,1763.00
2022-10-01T08:32:24.145Z,1095.00
2022-10-01T08:33:24.160Z,853.00
2022-10-01T08:34:24.128Z,627.00
2022-10-01T08:35:24.153Z,910.00
2022-10-01T08:36:24.147Z,1211.00
2022-10-01T08:37:24.137Z,698.00
2022-10-01T08:38:24.079Z,690.00
2022-10-01T08:39:24.095Z,1011.00
2022-10-01T08:40:24.065Z,1332.00
2022-10-01T08:41:24.088Z,856.00
2022-10-01T08:42:24.036Z,1005.00
2022-10-01T08:43:24.060Z,1300.00
2022-10-01T08:44:24.030Z,1200.00
2022-10-01T08:45:24.034Z,929.00
2022-10-01T08:46:24.055Z,958.00
2022-10-01T08:47:24.004Z,1020.00
2022-10-01T08:48:23.980Z,1208.00
2022-10-01T08:49:23.972Z,768.00
2022-10-01T08:50:23.977Z,750.00
2022-10-01T08:51:23.959Z,1965.00
2022-10-01T08:52:23.928Z,1476.00
2022-10-01T08:53:23.969Z,1231.00
2022-10-01T08:54:23.921Z,1883.00
2022-10-01T08:55:23.909Z,1279.00
2022-10-01T08:56:23.898Z,3801.00
2022-10-01T08:57:23.900Z,2916.00
2022-10-01T08:58:23.882Z,1591.00
2022-10-01T08:59:27.334Z,2209.00
2022-10-01T09:00:23.864Z,3435.00
2022-10-01T09:01:23.902Z,3286.00
2022-10-01T09:02:23.847Z,1856.00
2022-10-01T09:03:23.855Z,1365.00
2022-10-01T09:04:23.932Z,841.00
2022-10-01T09:05:23.807Z,2658.00
2022-10-01T09:06:23.803Z,4182.00
2022-10-01T09:07:23.795Z,4328.00
2022-10-01T09:08:23.814Z,4651.00
2022-10-01T09:09:23.778Z,2898.00
2022-10-01T09:10:23.775Z,2225.00
2022-10-01T09:11:23.739Z,1390.00
2022-10-01T09:12:23.731Z,3333.00
2022-10-01T09:13:23.754Z,2395.00
2022-10-01T09:14:23.701Z,2907.00
2022-10-01T09:15:23.713Z,2774.00
2022-10-01T09:16:23.749Z,2853.00
2022-10-01T09:17:23.679Z,1642.00
2022-10-01T09:18:23.685Z,2054.00
2022-10-01T09:19:23.655Z,1242.00
2022-10-01T09:20:23.709Z,1131.00
2022-10-01T09:21:23.637Z,1147.00
2022-10-01T09:22:23.654Z,1392.00
2022-10-01T09:23:23.615Z,919.00
2022-10-01T09:24:23.620Z,639.00
2022-10-01T09:25:23.606Z,1360.00
2022-10-01T09:26:25.740Z,2111.00
2022-10-01T09:27:23.558Z,1736.00
2022-10-01T09:28:23.686Z,1060.00
2022-10-01T09:29:23.559Z,353.00
2022-10-01T09:30:23.538Z,554.00
2022-10-01T09:31:23.566Z,2464.00
2022-10-01T09:32:23.527Z,2725.00
2022-10-01T09:33:23.502Z,2062.00
2022-10-01T09:34:23.512Z,1463.00
2022-10-01T09:35:23.511Z,2122.00
2022-10-01T09:36:23.500Z,1490.00
2022-10-01T09:37:23.466Z,2008.00
2022-10-01T09:38:23.458Z,3025.00
2022-10-01T09:39:23.474Z,1830.00
2022-10-01T09:40:23.443Z,1469.00
2022-10-01T09:41:23.455Z,2823.00
2022-10-01T09:42:23.441Z,2421.00
2022-10-01T09:43:23.397Z,1669.00
2022-10-01T09:44:23.385Z,1676.00
2022-10-01T09:45:23.387Z,1979.00
2022-10-01T09:46:23.439Z,1935.00
2022-10-01T09:47:23.366Z,3017.00
2022-10-01T09:48:23.355Z,1895.00
2022-10-01T09:49:23.352Z,1667.00
2022-10-01T09:50:23.354Z,3087.00
2022-10-01T09:51:23.321Z,3723.00
2022-10-01T09:52:23.335Z,4965.00
2022-10-01T09:53:23.289Z,3649.00
2022-10-01T09:54:23.333Z,2689.00
2022-10-01T09:55:23.287Z,2342.00
2022-10-01T09:56:23.272Z,1403.00
2022-10-01T09:57:23.262Z,6176.00
2022-10-01T09:58:23.257Z,4438.00
2022-10-01T09:59:23.248Z,2847.00
2022-10-01T10:00:23.225Z,3128.00
2022-10-01T10:01:23.213Z,4571.00
2022-10-01T10:02:23.358Z,3497.00
2022-10-01T10:03:23.283Z,3168.00
2022-10-01T10:04:23.206Z,4055.00
2022-10-01T10:05:23.171Z,2513.00
2022-10-01T10:06:23.159Z,2577.00
2022-10-01T10:07:23.191Z,1969.00
2022-10-01T10:08:23.181Z,3040.00
2022-10-01T10:09:23.195Z,3211.00
2022-10-01T10:10:25.770Z,2702.00
2022-10-01T10:11:23.087Z,3648.00
2022-10-01T10:12:23.110Z,3102.00
2022-10-01T10:13:23.142Z,2151.00
2022-10-01T10:14:23.065Z,2686.00
2022-10-01T10:15:23.091Z,2313.00
2022-10-01T10:16:23.098Z,1325.00
2022-10-01T10:17:23.048Z,1117.00
2022-10-01T10:18:24.047Z,2140.00
2022-10-01T10:19:23.019Z,2563.00
2022-10-01T10:20:23.025Z,2012.00
2022-10-01T10:21:23.011Z,2200.00
2022-10-01T10:22:23.011Z,2230.00
2022-10-01T10:23:22.993Z,3249.00
2022-10-01T10:24:22.985Z,2334.00
2022-10-01T10:25:22.943Z,1047.00
2022-10-01T10:27:27.666Z,2218.00
2022-10-01T10:27:32.639Z,1656.00
2022-10-01T10:28:36.479Z,4592.00
2022-10-01T10:29:32.589Z,6633.00
2022-10-01T10:30:32.571Z,1554.00
2022-10-01T10:31:32.656Z,4816.00
2022-10-01T10:32:32.552Z,4712.00
2022-10-01T10:33:32.572Z,1282.00
2022-10-01T10:34:32.535Z,3583.00
2022-10-01T10:35:32.547Z,3523.00
2022-10-01T10:36:32.739Z,1551.00
2022-10-01T10:37:32.507Z,3507.00
2022-10-01T10:38:32.513Z,4144.00
2022-10-01T10:39:32.533Z,5298.00
2022-10-01T10:40:32.517Z,1541.00
2022-10-01T10:41:32.818Z,3935.00
2022-10-01T10:42:32.463Z,3463.00
2022-10-01T10:43:32.470Z,3733.00
2022-10-01T10:44:32.408Z,3247.00
2022-10-01T10:45:32.462Z,3903.00
2022-10-01T10:46:32.495Z,2970.00
2022-10-01T10:47:32.410Z,2954.00
2022-10-01T10:48:32.386Z,5863.00
2022-10-01T10:49:32.392Z,1263.00
2022-10-01T10:50:32.364Z,3548.00
2022-10-01T10:51:32.784Z,3884.00
2022-10-01T10:52:32.353Z,2514.00
2022-10-01T10:53:32.380Z,3545.00
2022-10-01T10:54:32.394Z,4450.00
2022-10-01T10:55:32.546Z,5814.00
2022-10-01T10:56:32.603Z,1265.00
2022-10-01T10:57:32.305Z,2061.00
2022-10-01T10:58:32.265Z,6492.00
2022-10-01T10:59:32.295Z,2880.00
2022-10-01T11:00:32.244Z,4021.00
2022-10-01T11:01:32.594Z,1249.00
2022-10-01T11:02:32.308Z,5479.00
2022-10-01T11:03:39.404Z,3418.00
2022-10-01T11:04:32.199Z,2011.00
2022-10-01T11:05:32.234Z,5516.00
2022-10-01T11:06:32.406Z,4532.00
2022-10-01T11:07:32.208Z,3304.00
2022-10-01T11:08:32.168Z,2907.00
2022-10-01T11:09:32.158Z,3032.00
2022-10-01T11:10:32.153Z,4494.00
2022-10-01T11:11:32.142Z,3691.00
2022-10-01T11:12:32.112Z,3373.00
2022-10-01T11:13:32.128Z,2073.00
2022-10-01T11:14:32.100Z,1520.00
2022-10-01T11:15:32.182Z,2256.00
2022-10-01T11:16:32.579Z,2148.00
2022-10-01T11:17:32.087Z,1288.00
2022-10-01T11:18:32.057Z,1038.00
2022-10-01T11:19:32.079Z,4252.00
2022-10-01T11:20:32.067Z,3989.00
2022-10-01T11:21:32.069Z,4628.00
2022-10-01T11:22:32.027Z,4840.00
2022-10-01T11:23:31.999Z,3999.00
2022-10-01T11:24:31.980Z,2916.00
2022-10-01T11:25:31.997Z,1975.00
2022-10-01T11:26:32.257Z,1598.00
2022-10-01T11:27:31.955Z,1466.00
2022-10-01T11:28:32.007Z,1431.00
2022-10-01T11:29:31.974Z,1171.00
2022-10-01T11:30:31.936Z,1216.00
2022-10-01T11:31:32.008Z,1394.00
2022-10-01T11:32:31.894Z,1184.00
2022-10-01T11:33:31.932Z,917.00
2022-10-01T11:34:31.899Z,748.00
2022-10-01T11:35:31.866Z,699.00
2022-10-01T11:36:32.273Z,714.00
2022-10-01T11:37:31.915Z,725.00
2022-10-01T11:38:31.833Z,705.00
2022-10-01T11:39:31.857Z,731.00
2022-10-01T11:40:31.851Z,764.00
2022-10-01T11:41:31.867Z,785.00
2022-10-01T11:42:31.803Z,760.00
2022-10-01T11:43:31.823Z,730.00
2022-10-01T11:44:31.786Z,706.00
2022-10-01T11:45:31.794Z,701.00
2022-10-01T11:46:31.995Z,708.00
2022-10-01T11:47:31.781Z,726.00
2022-10-01T11:48:31.808Z,739.00
2022-10-01T11:49:31.760Z,752.00
2022-10-01T11:50:34.184Z,789.00
2022-10-01T11:51:31.738Z,813.00
2022-10-01T11:52:31.706Z,851.00
2022-10-01T11:53:31.709Z,904.00
2022-10-01T11:54:31.696Z,957.00
2022-10-01T11:55:31.692Z,1022.00
2022-10-01T11:56:31.882Z,1072.00
2022-10-01T11:57:31.656Z,1174.00
2022-10-01T11:58:31.637Z,1221.00
2022-10-01T11:59:31.634Z,1257.00
2022-10-01T12:00:31.613Z,1254.00
2022-10-01T12:01:31.654Z,1238.00
2022-10-01T12:02:31.577Z,1182.00
2022-10-01T12:03:31.606Z,1097.00
2022-10-01T12:04:31.591Z,1031.00
2022-10-01T12:05:31.587Z,980.00
2022-10-01T12:06:33.936Z,960.00
2022-10-01T12:07:31.542Z,462.00
2022-10-01T12:08:31.535Z,2530.00
2022-10-01T12:09:31.519Z,1116.00
2022-10-01T12:10:31.486Z,1172.00
2022-10-01T12:11:31.501Z,513.00
2022-10-01T12:12:31.516Z,1722.00
2022-10-01T12:13:31.490Z,1735.00
2022-10-01T12:14:31.471Z,1798.00
2022-10-01T12:15:31.489Z,1792.00
2022-10-01T12:16:31.541Z,3002.00
2022-10-01T12:17:31.459Z,526.00
2022-10-01T12:18:31.450Z,841.00
2022-10-01T12:19:31.462Z,1863.00
2022-10-01T12:20:31.422Z,1957.00
2022-10-01T12:21:31.415Z,1947.00
2022-10-01T12:22:31.385Z,1933.00
2022-10-01T12:23:31.383Z,1952.00
2022-10-01T12:24:31.363Z,2033.00
2022-10-01T12:25:31.369Z,2035.00
2022-10-01T12:26:31.423Z,2031.00
2022-10-01T12:27:31.447Z,2070.00
2022-10-01T12:28:31.342Z,2699.00
2022-10-01T12:29:31.422Z,1328.00
2022-10-01T12:30:31.314Z,2018.00
2022-10-01T12:31:31.386Z,1913.00
2022-10-01T12:32:31.324Z,4082.00
2022-10-01T12:33:31.290Z,868.00
2022-10-01T12:34:31.262Z,4161.00
2022-10-01T12:35:31.285Z,1382.00
2022-10-01T12:36:31.376Z,1010.00
2022-10-01T12:37:31.246Z,2113.00
2022-10-01T12:38:31.214Z,2559.00
2022-10-01T12:39:31.205Z,2532.00
2022-10-01T12:40:31.226Z,2537.00
2022-10-01T12:41:31.200Z,2283.00
2022-10-01T12:42:31.159Z,2381.00
2022-10-01T12:43:31.176Z,2944.00
2022-10-01T12:44:31.145Z,3149.00